sensor_id;sensor_type;location;lat;lon;timestamp;temperature;humidity
2459;DHT22;1241;50.920;6.936;2023-05-10T00:01:05;15.10;99.90
2459;DHT22;1241;50.920;6.936;2023-05-10T00:03:31;15.10;99.90
2459;DHT22;1241;50.920;6.936;2023-05-10T00:05:57;15.10;99.90
2459;DHT22;1241;50.920;6.936;2023-05-10T00:08:23;15.00;99.90
2459;DHT22;1241;50.920;6.936;2023-05-10T00:10:49;15.10;99.90
2459;DHT22;1241;50.920;6.936;2023-05-10T00:13:15;15.10;99.90
2459;DHT22;1241;50.920;6.936;2023-05-10T00:15:40;15.10;99.90
2459;DHT22;1241;50.920;6.936;2023-05-10T00:18:06;15.10;99.90
2459;DHT22;1241;50.920;6.936;2023-05-10T00:20:32;15.10;99.90
2459;DHT22;1241;50.920;6.936;2023-05-10T00:22:58;15.10;99.90
2459;DHT22;1241;50.920;6.936;2023-05-10T00:25:23;15.10;99.90
2459;DHT22;1241;50.920;6.936;2023-05-10T00:27:49;15.00;99.90
2459;DHT22;1241;50.920;6.936;2023-05-10T00:30:15;15.10;99.90
2459;DHT22;1241;50.920;6.936;2023-05-10T00:32:41;15.10;99.90
2459;DHT22;1241;50.920;6.936;2023-05-10T00:35:07;15.20;99.90
2459;DHT22;1241;50.920;6.936;2023-05-10T00:37:33;15.10;99.90
2459;DHT22;1241;50.920;6.936;2023-05-10T00:39:59;15.10;99.90
2459;DHT22;1241;50.920;6.936;2023-05-10T00:42:26;15.10;99.90
2459;DHT22;1241;50.920;6.936;2023-05-10T00:44:53;15.20;99.90
2459;DHT22;1241;50.920;6.936;2023-05-10T00:47:19;15.20;99.90
2459;DHT22;1241;50.920;6.936;2023-05-10T00:49:45;15.10;99.90
2459;DHT22;1241;50.920;6.936;2023-05-10T00:52:11;15.10;99.90
2459;DHT22;1241;50.920;6.936;2023-05-10T00:54:37;15.10;99.90
2459;DHT22;1241;50.920;6.936;2023-05-10T00:57:03;15.10;99.90
2459;DHT22;1241;50.920;6.936;2023-05-10T00:59:29;15.10;99.90
2459;DHT22;1241;50.920;6.936;2023-05-10T01:01:55;15.20;99.90
2459;DHT22;1241;50.920;6.936;2023-05-10T01:04:21;15.20;99.90
2459;DHT22;1241;50.920;6.936;2023-05-10T01:06:51;15.20;99.90
2459;DHT22;1241;50.920;6.936;2023-05-10T01:09:19;15.20;99.90
2459;DHT22;1241;50.920;6.936;2023-05-10T01:11:45;15.20;99.90
2459;DHT22;1241;50.920;6.936;2023-05-10T01:14:11;15.30;99.90
2459;DHT22;1241;50.920;6.936;2023-05-10T01:16:39;15.20;99.90
2459;DHT22;1241;50.920;6.936;2023-05-10T01:19:26;15.30;99.90
2459;DHT22;1241;50.920;6.936;2023-05-10T01:27:17;15.40;99.90
2459;DHT22;1241;50.920;6.936;2023-05-10T01:37:50;15.40;99.90
2459;DHT22;1241;50.920;6.936;2023-05-10T01:42:54;15.30;99.90
2459;DHT22;1241;50.920;6.936;2023-05-10T01:45:28;15.30;99.90
2459;DHT22;1241;50.920;6.936;2023-05-10T01:48:08;15.40;99.90
2459;DHT22;1241;50.920;6.936;2023-05-10T01:50:37;15.40;99.90
2459;DHT22;1241;50.920;6.936;2023-05-10T01:53:07;15.40;99.90
2459;DHT22;1241;50.920;6.936;2023-05-10T01:55:36;15.30;99.90
2459;DHT22;1241;50.920;6.936;2023-05-10T01:58:10;15.30;99.90
2459;DHT22;1241;50.920;6.936;2023-05-10T02:00:44;15.30;99.90
2459;DHT22;1241;50.920;6.936;2023-05-10T02:03:12;15.30;99.90
2459;DHT22;1241;50.920;6.936;2023-05-10T02:05:40;15.30;99.90
2459;DHT22;1241;50.920;6.936;2023-05-10T02:08:07;15.30;99.90
2459;DHT22;1241;50.920;6.936;2023-05-10T02:10:36;15.30;99.90
2459;DHT22;1241;50.920;6.936;2023-05-10T02:13:03;15.30;99.90
2459;DHT22;1241;50.920;6.936;2023-05-10T02:15:30;15.20;99.90
2459;DHT22;1241;50.920;6.936;2023-05-10T02:17:57;15.20;99.90
2459;DHT22;1241;50.920;6.936;2023-05-10T02:20:24;15.20;99.90
2459;DHT22;1241;50.920;6.936;2023-05-10T02:22:53;15.10;99.90
2459;DHT22;1241;50.920;6.936;2023-05-10T02:25:21;15.10;99.90
2459;DHT22;1241;50.920;6.936;2023-05-10T02:27:48;15.10;99.90
2459;DHT22;1241;50.920;6.936;2023-05-10T02:30:15;15.10;99.90
2459;DHT22;1241;50.920;6.936;2023-05-10T02:32:41;15.00;99.90
2459;DHT22;1241;50.920;6.936;2023-05-10T02:35:09;15.10;99.90
2459;DHT22;1241;50.920;6.936;2023-05-10T02:37:37;15.00;99.90
2459;DHT22;1241;50.920;6.936;2023-05-10T02:40:05;14.90;99.90
2459;DHT22;1241;50.920;6.936;2023-05-10T02:42:35;15.00;99.90
2459;DHT22;1241;50.920;6.936;2023-05-10T02:45:07;15.00;99.90
2459;DHT22;1241;50.920;6.936;2023-05-10T02:47:34;14.90;99.90
2459;DHT22;1241;50.920;6.936;2023-05-10T02:50:00;14.90;99.90
2459;DHT22;1241;50.920;6.936;2023-05-10T02:52:29;14.90;99.90
2459;DHT22;1241;50.920;6.936;2023-05-10T02:55:01;15.00;99.90
2459;DHT22;1241;50.920;6.936;2023-05-10T02:57:32;14.90;99.90
2459;DHT22;1241;50.920;6.936;2023-05-10T02:59:59;14.90;99.90
2459;DHT22;1241;50.920;6.936;2023-05-10T03:02:26;14.90;99.90
2459;DHT22;1241;50.920;6.936;2023-05-10T03:04:52;15.00;99.90
2459;DHT22;1241;50.920;6.936;2023-05-10T03:07:18;15.10;99.90
2459;DHT22;1241;50.920;6.936;2023-05-10T03:09:48;15.10;99.90
2459;DHT22;1241;50.920;6.936;2023-05-10T03:18:22;15.20;99.90
2459;DHT22;1241;50.920;6.936;2023-05-10T03:20:29;15.20;99.90
2459;DHT22;1241;50.920;6.936;2023-05-10T03:23:18;15.10;99.90
2459;DHT22;1241;50.920;6.936;2023-05-10T03:25:48;15.20;99.90
2459;DHT22;1241;50.920;6.936;2023-05-10T03:28:16;15.20;99.90
2459;DHT22;1241;50.920;6.936;2023-05-10T03:30:43;15.20;99.90
2459;DHT22;1241;50.920;6.936;2023-05-10T03:33:11;15.20;99.90
2459;DHT22;1241;50.920;6.936;2023-05-10T03:35:40;15.20;99.90
2459;DHT22;1241;50.920;6.936;2023-05-10T03:38:07;15.10;99.90
2459;DHT22;1241;50.920;6.936;2023-05-10T03:40:32;15.10;99.90
2459;DHT22;1241;50.920;6.936;2023-05-10T03:42:59;15.10;99.90
2459;DHT22;1241;50.920;6.936;2023-05-10T03:45:25;15.20;99.90
2459;DHT22;1241;50.920;6.936;2023-05-10T03:47:51;15.20;99.90
2459;DHT22;1241;50.920;6.936;2023-05-10T03:50:17;15.20;99.90
2459;DHT22;1241;50.920;6.936;2023-05-10T03:52:43;15.20;99.90
2459;DHT22;1241;50.920;6.936;2023-05-10T03:55:10;15.20;99.90
2459;DHT22;1241;50.920;6.936;2023-05-10T03:57:37;15.20;99.90
2459;DHT22;1241;50.920;6.936;2023-05-10T04:00:03;15.20;99.90
2459;DHT22;1241;50.920;6.936;2023-05-10T04:02:39;15.20;99.90
2459;DHT22;1241;50.920;6.936;2023-05-10T04:05:07;15.30;99.90
2459;DHT22;1241;50.920;6.936;2023-05-10T04:07:33;15.30;99.90
2459;DHT22;1241;50.920;6.936;2023-05-10T04:09:58;15.30;99.90
2459;DHT22;1241;50.920;6.936;2023-05-10T04:12:24;15.30;99.90
2459;DHT22;1241;50.920;6.936;2023-05-10T04:14:50;15.40;99.90
2459;DHT22;1241;50.920;6.936;2023-05-10T04:17:16;15.40;99.90
2459;DHT22;1241;50.920;6.936;2023-05-10T04:19:42;15.40;99.90
2459;DHT22;1241;50.920;6.936;2023-05-10T04:22:07;15.40;99.90
2459;DHT22;1241;50.920;6.936;2023-05-10T04:24:33;15.40;99.90
2459;DHT22;1241;50.920;6.936;2023-05-10T04:26:59;15.40;99.90
2459;DHT22;1241;50.920;6.936;2023-05-10T04:29:26;15.30;99.90
2459;DHT22;1241;50.920;6.936;2023-05-10T04:31:52;15.30;99.90
2459;DHT22;1241;50.920;6.936;2023-05-10T04:34:20;15.30;99.90
2459;DHT22;1241;50.920;6.936;2023-05-10T04:36:46;15.20;99.90
2459;DHT22;1241;50.920;6.936;2023-05-10T04:39:12;15.20;99.90
2459;DHT22;1241;50.920;6.936;2023-05-10T04:41:39;15.20;99.90
2459;DHT22;1241;50.920;6.936;2023-05-10T04:44:04;15.10;99.90
2459;DHT22;1241;50.920;6.936;2023-05-10T04:46:30;15.20;99.90
2459;DHT22;1241;50.920;6.936;2023-05-10T04:48:56;15.10;99.90
2459;DHT22;1241;50.920;6.936;2023-05-10T04:51:21;15.10;99.90
2459;DHT22;1241;50.920;6.936;2023-05-10T04:53:47;15.00;99.90
2459;DHT22;1241;50.920;6.936;2023-05-10T04:56:12;15.00;99.90
2459;DHT22;1241;50.920;6.936;2023-05-10T04:58:38;15.00;99.90
2459;DHT22;1241;50.920;6.936;2023-05-10T05:01:08;15.00;99.90
2459;DHT22;1241;50.920;6.936;2023-05-10T05:03:34;15.10;99.90
2459;DHT22;1241;50.920;6.936;2023-05-10T05:05:59;15.20;99.90
2459;DHT22;1241;50.920;6.936;2023-05-10T05:08:25;15.20;99.90
2459;DHT22;1241;50.920;6.936;2023-05-10T05:10:51;15.20;99.90
2459;DHT22;1241;50.920;6.936;2023-05-10T05:13:17;15.30;99.90
2459;DHT22;1241;50.920;6.936;2023-05-10T05:15:43;15.30;99.90
2459;DHT22;1241;50.920;6.936;2023-05-10T05:18:08;15.40;99.90
2459;DHT22;1241;50.920;6.936;2023-05-10T05:20:34;15.40;99.90
2459;DHT22;1241;50.920;6.936;2023-05-10T05:23:00;15.40;99.90
2459;DHT22;1241;50.920;6.936;2023-05-10T05:25:26;15.50;99.90
2459;DHT22;1241;50.920;6.936;2023-05-10T05:27:52;15.40;99.90
2459;DHT22;1241;50.920;6.936;2023-05-10T05:30:17;15.40;99.90
2459;DHT22;1241;50.920;6.936;2023-05-10T05:32:43;15.40;99.90
2459;DHT22;1241;50.920;6.936;2023-05-10T05:35:09;15.40;99.90
2459;DHT22;1241;50.920;6.936;2023-05-10T05:37:35;15.40;99.90
2459;DHT22;1241;50.920;6.936;2023-05-10T05:40:01;15.30;99.90
2459;DHT22;1241;50.920;6.936;2023-05-10T05:42:27;15.30;99.90
2459;DHT22;1241;50.920;6.936;2023-05-10T05:44:52;15.40;99.90
2459;DHT22;1241;50.920;6.936;2023-05-10T05:47:18;15.40;99.90
2459;DHT22;1241;50.920;6.936;2023-05-10T05:49:44;15.50;99.90
2459;DHT22;1241;50.920;6.936;2023-05-10T05:52:12;15.60;99.90
2459;DHT22;1241;50.920;6.936;2023-05-10T05:54:39;15.70;99.90
2459;DHT22;1241;50.920;6.936;2023-05-10T05:57:05;15.80;99.90
2459;DHT22;1241;50.920;6.936;2023-05-10T05:59:30;15.90;99.90
2459;DHT22;1241;50.920;6.936;2023-05-10T06:01:56;16.00;99.90
2459;DHT22;1241;50.920;6.936;2023-05-10T06:04:22;16.10;99.90
2459;DHT22;1241;50.920;6.936;2023-05-10T06:06:48;16.20;99.90
2459;DHT22;1241;50.920;6.936;2023-05-10T06:09:13;16.30;99.90
2459;DHT22;1241;50.920;6.936;2023-05-10T06:11:39;16.30;99.90
2459;DHT22;1241;50.920;6.936;2023-05-10T06:14:05;16.20;99.90
2459;DHT22;1241;50.920;6.936;2023-05-10T06:16:32;16.10;99.90
2459;DHT22;1241;50.920;6.936;2023-05-10T06:18:58;16.20;99.90
2459;DHT22;1241;50.920;6.936;2023-05-10T06:21:24;16.10;99.90
2459;DHT22;1241;50.920;6.936;2023-05-10T06:23:50;16.00;99.90
2459;DHT22;1241;50.920;6.936;2023-05-10T06:26:15;15.90;99.90
2459;DHT22;1241;50.920;6.936;2023-05-10T06:28:41;15.80;99.90
2459;DHT22;1241;50.920;6.936;2023-05-10T06:31:07;15.80;99.90
2459;DHT22;1241;50.920;6.936;2023-05-10T06:33:33;15.80;99.90
2459;DHT22;1241;50.920;6.936;2023-05-10T06:35:59;15.80;99.90
2459;DHT22;1241;50.920;6.936;2023-05-10T06:38:25;15.90;99.90
2459;DHT22;1241;50.920;6.936;2023-05-10T06:40:51;16.00;99.90
2459;DHT22;1241;50.920;6.936;2023-05-10T06:43:17;16.10;99.90
2459;DHT22;1241;50.920;6.936;2023-05-10T06:45:43;16.20;99.90
2459;DHT22;1241;50.920;6.936;2023-05-10T06:48:08;16.20;99.90
2459;DHT22;1241;50.920;6.936;2023-05-10T06:50:34;16.20;99.90
2459;DHT22;1241;50.920;6.936;2023-05-10T06:53:00;16.30;99.90
2459;DHT22;1241;50.920;6.936;2023-05-10T06:55:27;16.30;99.90
2459;DHT22;1241;50.920;6.936;2023-05-10T06:57:53;16.30;99.90
2459;DHT22;1241;50.920;6.936;2023-05-10T07:00:19;16.20;99.90
2459;DHT22;1241;50.920;6.936;2023-05-10T07:02:46;16.20;99.90
2459;DHT22;1241;50.920;6.936;2023-05-10T07:05:12;16.10;99.90
2459;DHT22;1241;50.920;6.936;2023-05-10T07:07:39;16.00;99.90
2459;DHT22;1241;50.920;6.936;2023-05-10T07:10:05;15.90;99.90
2459;DHT22;1241;50.920;6.936;2023-05-10T07:12:31;15.90;99.90
2459;DHT22;1241;50.920;6.936;2023-05-10T07:14:57;15.90;99.90
2459;DHT22;1241;50.920;6.936;2023-05-10T07:17:22;15.90;99.90
2459;DHT22;1241;50.920;6.936;2023-05-10T07:19:48;15.90;99.90
2459;DHT22;1241;50.920;6.936;2023-05-10T07:22:14;15.90;99.90
2459;DHT22;1241;50.920;6.936;2023-05-10T07:24:40;15.90;99.90
2459;DHT22;1241;50.920;6.936;2023-05-10T07:27:06;16.00;99.90
2459;DHT22;1241;50.920;6.936;2023-05-10T07:29:32;16.10;99.90
2459;DHT22;1241;50.920;6.936;2023-05-10T07:31:58;16.30;99.90
2459;DHT22;1241;50.920;6.936;2023-05-10T07:34:23;16.40;99.90
2459;DHT22;1241;50.920;6.936;2023-05-10T07:36:49;16.50;99.90
2459;DHT22;1241;50.920;6.936;2023-05-10T07:39:15;16.50;99.90
2459;DHT22;1241;50.920;6.936;2023-05-10T07:41:40;16.40;99.90
2459;DHT22;1241;50.920;6.936;2023-05-10T07:44:06;16.40;99.90
2459;DHT22;1241;50.920;6.936;2023-05-10T07:46:32;16.60;99.90
2459;DHT22;1241;50.920;6.936;2023-05-10T07:48:58;16.60;99.90
2459;DHT22;1241;50.920;6.936;2023-05-10T07:51:24;16.60;99.90
2459;DHT22;1241;50.920;6.936;2023-05-10T07:53:49;16.70;99.90
2459;DHT22;1241;50.920;6.936;2023-05-10T07:56:26;16.80;99.90
2459;DHT22;1241;50.920;6.936;2023-05-10T07:58:55;16.70;99.90
2459;DHT22;1241;50.920;6.936;2023-05-10T08:01:22;16.80;99.90
2459;DHT22;1241;50.920;6.936;2023-05-10T08:03:48;17.00;99.90
2459;DHT22;1241;50.920;6.936;2023-05-10T08:06:18;17.20;99.90
2459;DHT22;1241;50.920;6.936;2023-05-10T08:08:45;17.40;99.90
2459;DHT22;1241;50.920;6.936;2023-05-10T08:11:17;17.60;99.90
2459;DHT22;1241;50.920;6.936;2023-05-10T08:13:47;17.90;99.90
2459;DHT22;1241;50.920;6.936;2023-05-10T08:16:13;18.10;99.90
2459;DHT22;1241;50.920;6.936;2023-05-10T08:18:39;18.30;99.90
2459;DHT22;1241;50.920;6.936;2023-05-10T08:21:05;18.30;99.90
2459;DHT22;1241;50.920;6.936;2023-05-10T08:23:31;18.20;99.90
2459;DHT22;1241;50.920;6.936;2023-05-10T08:25:57;18.30;99.90
2459;DHT22;1241;50.920;6.936;2023-05-10T08:28:23;18.40;99.90
2459;DHT22;1241;50.920;6.936;2023-05-10T08:30:50;18.50;99.90
2459;DHT22;1241;50.920;6.936;2023-05-10T08:33:17;18.50;99.90
2459;DHT22;1241;50.920;6.936;2023-05-10T08:35:42;18.60;99.90
2459;DHT22;1241;50.920;6.936;2023-05-10T08:38:08;18.30;99.90
2459;DHT22;1241;50.920;6.936;2023-05-10T08:40:34;18.20;99.90
2459;DHT22;1241;50.920;6.936;2023-05-10T08:43:06;17.90;99.90
2459;DHT22;1241;50.920;6.936;2023-05-10T08:45:37;17.70;99.90
2459;DHT22;1241;50.920;6.936;2023-05-10T08:48:05;17.50;99.90
2459;DHT22;1241;50.920;6.936;2023-05-10T08:50:32;17.20;99.90
2459;DHT22;1241;50.920;6.936;2023-05-10T08:53:00;17.20;99.90
2459;DHT22;1241;50.920;6.936;2023-05-10T08:55:27;17.30;99.90
2459;DHT22;1241;50.920;6.936;2023-05-10T08:57:53;17.30;99.90
2459;DHT22;1241;50.920;6.936;2023-05-10T09:00:19;17.30;99.90
2459;DHT22;1241;50.920;6.936;2023-05-10T09:02:45;17.40;99.90
2459;DHT22;1241;50.920;6.936;2023-05-10T09:05:12;17.50;99.90
2459;DHT22;1241;50.920;6.936;2023-05-10T09:07:37;17.60;99.90
2459;DHT22;1241;50.920;6.936;2023-05-10T09:10:04;17.70;99.90
2459;DHT22;1241;50.920;6.936;2023-05-10T09:12:30;17.80;99.90
2459;DHT22;1241;50.920;6.936;2023-05-10T09:14:58;17.80;99.90
2459;DHT22;1241;50.920;6.936;2023-05-10T09:17:25;17.90;99.90
2459;DHT22;1241;50.920;6.936;2023-05-10T09:20:03;18.20;99.90
2459;DHT22;1241;50.920;6.936;2023-05-10T09:22:33;18.40;99.90
2459;DHT22;1241;50.920;6.936;2023-05-10T09:27:30;18.60;99.90
2459;DHT22;1241;50.920;6.936;2023-05-10T09:29:56;18.80;99.90
2459;DHT22;1241;50.920;6.936;2023-05-10T09:32:36;19.10;99.90
2459;DHT22;1241;50.920;6.936;2023-05-10T09:35:13;19.20;99.90
2459;DHT22;1241;50.920;6.936;2023-05-10T09:37:40;19.30;99.90
2459;DHT22;1241;50.920;6.936;2023-05-10T09:40:14;19.30;99.90
2459;DHT22;1241;50.920;6.936;2023-05-10T09:42:42;19.40;99.90
2459;DHT22;1241;50.920;6.936;2023-05-10T09:45:08;18.90;99.90
2459;DHT22;1241;50.920;6.936;2023-05-10T09:47:35;18.50;99.90
2459;DHT22;1241;50.920;6.936;2023-05-10T09:50:02;18.10;99.90
2459;DHT22;1241;50.920;6.936;2023-05-10T09:55:11;17.10;99.90
2459;DHT22;1241;50.920;6.936;2023-05-10T09:57:37;16.90;99.90
2459;DHT22;1241;50.920;6.936;2023-05-10T10:00:04;16.80;99.90
2459;DHT22;1241;50.920;6.936;2023-05-10T10:02:39;16.80;99.90
2459;DHT22;1241;50.920;6.936;2023-05-10T10:05:06;16.80;99.90
2459;DHT22;1241;50.920;6.936;2023-05-10T10:07:32;17.00;99.90
2459;DHT22;1241;50.920;6.936;2023-05-10T10:09:59;17.40;99.90
2459;DHT22;1241;50.920;6.936;2023-05-10T10:12:25;18.00;99.90
2459;DHT22;1241;50.920;6.936;2023-05-10T10:14:52;18.50;99.90
2459;DHT22;1241;50.920;6.936;2023-05-10T10:17:19;18.90;99.90
2459;DHT22;1241;50.920;6.936;2023-05-10T10:19:45;19.30;99.90
2459;DHT22;1241;50.920;6.936;2023-05-10T10:22:12;19.60;99.90
2459;DHT22;1241;50.920;6.936;2023-05-10T10:24:38;19.60;99.90
2459;DHT22;1241;50.920;6.936;2023-05-10T10:27:33;20.00;99.90
2459;DHT22;1241;50.920;6.936;2023-05-10T10:32:47;21.00;99.90
2459;DHT22;1241;50.920;6.936;2023-05-10T10:35:20;21.50;99.90
2459;DHT22;1241;50.920;6.936;2023-05-10T10:37:47;21.80;99.90
2459;DHT22;1241;50.920;6.936;2023-05-10T10:40:26;21.40;99.90
2459;DHT22;1241;50.920;6.936;2023-05-10T10:42:53;21.10;99.90
2459;DHT22;1241;50.920;6.936;2023-05-10T10:45:19;20.80;99.90
2459;DHT22;1241;50.920;6.936;2023-05-10T10:47:45;20.40;99.90
2459;DHT22;1241;50.920;6.936;2023-05-10T10:50:11;20.50;99.90
2459;DHT22;1241;50.920;6.936;2023-05-10T10:52:45;20.40;99.90
2459;DHT22;1241;50.920;6.936;2023-05-10T10:55:18;20.30;99.90
2459;DHT22;1241;50.920;6.936;2023-05-10T10:57:50;20.40;99.90
2459;DHT22;1241;50.920;6.936;2023-05-10T11:00:30;20.60;99.90
2459;DHT22;1241;50.920;6.936;2023-05-10T11:03:06;20.80;99.90
2459;DHT22;1241;50.920;6.936;2023-05-10T11:05:37;21.00;99.90
2459;DHT22;1241;50.920;6.936;2023-05-10T11:08:28;21.00;99.90
2459;DHT22;1241;50.920;6.936;2023-05-10T11:13:47;21.30;99.90
2459;DHT22;1241;50.920;6.936;2023-05-10T11:19:06;21.80;99.90
2459;DHT22;1241;50.920;6.936;2023-05-10T11:21:34;21.60;99.90
2459;DHT22;1241;50.920;6.936;2023-05-10T11:24:13;21.50;99.90
2459;DHT22;1241;50.920;6.936;2023-05-10T11:26:40;21.10;99.90
2459;DHT22;1241;50.920;6.936;2023-05-10T11:29:06;20.90;99.90
2459;DHT22;1241;50.920;6.936;2023-05-10T11:31:31;20.70;99.90
2459;DHT22;1241;50.920;6.936;2023-05-10T11:33:59;20.40;99.90
2459;DHT22;1241;50.920;6.936;2023-05-10T11:36:28;20.30;99.90
2459;DHT22;1241;50.920;6.936;2023-05-10T11:38:55;20.20;99.90
2459;DHT22;1241;50.920;6.936;2023-05-10T11:41:22;20.00;99.90
2459;DHT22;1241;50.920;6.936;2023-05-10T11:43:53;19.80;99.90
2459;DHT22;1241;50.920;6.936;2023-05-10T11:46:23;19.60;99.90
2459;DHT22;1241;50.920;6.936;2023-05-10T11:48:51;19.20;99.90
2459;DHT22;1241;50.920;6.936;2023-05-10T11:51:21;19.00;99.90
2459;DHT22;1241;50.920;6.936;2023-05-10T11:53:47;18.80;99.90
2459;DHT22;1241;50.920;6.936;2023-05-10T11:56:13;18.80;99.90
2459;DHT22;1241;50.920;6.936;2023-05-10T11:58:39;19.00;99.90
2459;DHT22;1241;50.920;6.936;2023-05-10T12:01:06;19.20;99.90
2459;DHT22;1241;50.920;6.936;2023-05-10T12:03:33;19.60;99.90
2459;DHT22;1241;50.920;6.936;2023-05-10T12:06:00;19.80;99.90
2459;DHT22;1241;50.920;6.936;2023-05-10T12:08:28;20.00;99.90
2459;DHT22;1241;50.920;6.936;2023-05-10T12:11:04;20.20;99.90
2459;DHT22;1241;50.920;6.936;2023-05-10T12:13:30;20.20;99.90
2459;DHT22;1241;50.920;6.936;2023-05-10T12:15:59;20.20;99.90
2459;DHT22;1241;50.920;6.936;2023-05-10T12:18:25;20.30;99.90
2459;DHT22;1241;50.920;6.936;2023-05-10T12:20:52;20.20;99.90
2459;DHT22;1241;50.920;6.936;2023-05-10T12:23:20;20.40;99.90
2459;DHT22;1241;50.920;6.936;2023-05-10T12:25:45;20.70;99.90
2459;DHT22;1241;50.920;6.936;2023-05-10T12:28:11;21.10;99.90
2459;DHT22;1241;50.920;6.936;2023-05-10T12:30:37;21.70;99.90
2459;DHT22;1241;50.920;6.936;2023-05-10T12:33:13;22.00;99.90
2459;DHT22;1241;50.920;6.936;2023-05-10T12:38:31;22.30;99.90
2459;DHT22;1241;50.920;6.936;2023-05-10T12:41:03;22.20;99.90
2459;DHT22;1241;50.920;6.936;2023-05-10T12:43:29;21.80;99.90
2459;DHT22;1241;50.920;6.936;2023-05-10T12:45:55;21.80;99.90
2459;DHT22;1241;50.920;6.936;2023-05-10T12:48:21;21.80;99.90
2459;DHT22;1241;50.920;6.936;2023-05-10T12:50:46;21.90;99.90
2459;DHT22;1241;50.920;6.936;2023-05-10T12:53:16;22.00;99.90
2459;DHT22;1241;50.920;6.936;2023-05-10T12:55:42;22.00;99.90
2459;DHT22;1241;50.920;6.936;2023-05-10T12:58:08;22.10;99.90
2459;DHT22;1241;50.920;6.936;2023-05-10T13:00:34;21.70;99.90
2459;DHT22;1241;50.920;6.936;2023-05-10T13:03:00;21.60;99.90
2459;DHT22;1241;50.920;6.936;2023-05-10T13:05:25;21.60;99.90
2459;DHT22;1241;50.920;6.936;2023-05-10T13:07:51;21.50;99.90
2459;DHT22;1241;50.920;6.936;2023-05-10T13:10:17;21.50;99.90
2459;DHT22;1241;50.920;6.936;2023-05-10T13:12:42;21.60;99.90
2459;DHT22;1241;50.920;6.936;2023-05-10T13:15:08;21.60;99.90
2459;DHT22;1241;50.920;6.936;2023-05-10T13:17:34;21.40;99.90
2459;DHT22;1241;50.920;6.936;2023-05-10T13:20:00;21.30;99.90
2459;DHT22;1241;50.920;6.936;2023-05-10T13:22:26;21.30;99.90
2459;DHT22;1241;50.920;6.936;2023-05-10T13:24:51;21.20;99.90
2459;DHT22;1241;50.920;6.936;2023-05-10T13:27:17;21.40;99.90
2459;DHT22;1241;50.920;6.936;2023-05-10T13:29:43;21.30;99.90
2459;DHT22;1241;50.920;6.936;2023-05-10T13:32:08;21.20;99.90
2459;DHT22;1241;50.920;6.936;2023-05-10T13:34:34;21.30;99.90
2459;DHT22;1241;50.920;6.936;2023-05-10T13:37:01;21.60;99.90
2459;DHT22;1241;50.920;6.936;2023-05-10T13:39:27;21.40;99.90
2459;DHT22;1241;50.920;6.936;2023-05-10T13:41:52;21.40;99.90
2459;DHT22;1241;50.920;6.936;2023-05-10T13:44:19;21.20;99.90
2459;DHT22;1241;50.920;6.936;2023-05-10T13:46:45;21.10;99.90
2459;DHT22;1241;50.920;6.936;2023-05-10T13:49:11;21.10;99.90
2459;DHT22;1241;50.920;6.936;2023-05-10T13:51:37;21.20;99.90
2459;DHT22;1241;50.920;6.936;2023-05-10T13:54:03;21.40;99.90
2459;DHT22;1241;50.920;6.936;2023-05-10T13:56:29;21.60;99.90
2459;DHT22;1241;50.920;6.936;2023-05-10T13:58:56;21.80;99.90
2459;DHT22;1241;50.920;6.936;2023-05-10T14:01:22;22.10;99.90
2459;DHT22;1241;50.920;6.936;2023-05-10T14:03:48;22.20;99.90
2459;DHT22;1241;50.920;6.936;2023-05-10T14:06:14;22.30;99.90
2459;DHT22;1241;50.920;6.936;2023-05-10T14:08:40;22.50;99.90
2459;DHT22;1241;50.920;6.936;2023-05-10T14:11:05;22.70;99.90
2459;DHT22;1241;50.920;6.936;2023-05-10T14:13:31;22.80;99.90
2459;DHT22;1241;50.920;6.936;2023-05-10T14:15:57;23.00;99.90
2459;DHT22;1241;50.920;6.936;2023-05-10T14:18:26;23.10;99.90
2459;DHT22;1241;50.920;6.936;2023-05-10T14:20:52;23.00;99.90
2459;DHT22;1241;50.920;6.936;2023-05-10T14:23:17;22.90;99.90
2459;DHT22;1241;50.920;6.936;2023-05-10T14:25:45;22.80;99.90
2459;DHT22;1241;50.920;6.936;2023-05-10T14:28:11;22.70;99.90
2459;DHT22;1241;50.920;6.936;2023-05-10T14:30:37;22.60;99.90
2459;DHT22;1241;50.920;6.936;2023-05-10T14:33:03;22.60;99.90
2459;DHT22;1241;50.920;6.936;2023-05-10T14:35:29;22.60;99.90
2459;DHT22;1241;50.920;6.936;2023-05-10T14:37:56;22.60;99.90
2459;DHT22;1241;50.920;6.936;2023-05-10T14:40:23;22.50;99.90
2459;DHT22;1241;50.920;6.936;2023-05-10T14:42:49;22.60;99.90
2459;DHT22;1241;50.920;6.936;2023-05-10T14:45:15;22.40;99.90
2459;DHT22;1241;50.920;6.936;2023-05-10T14:47:40;22.40;99.90
2459;DHT22;1241;50.920;6.936;2023-05-10T14:50:06;22.30;99.90
2459;DHT22;1241;50.920;6.936;2023-05-10T14:52:32;22.20;99.90
2459;DHT22;1241;50.920;6.936;2023-05-10T14:54:58;22.10;99.90
2459;DHT22;1241;50.920;6.936;2023-05-10T14:57:25;22.20;99.90
2459;DHT22;1241;50.920;6.936;2023-05-10T14:59:51;22.20;99.90
2459;DHT22;1241;50.920;6.936;2023-05-10T15:02:17;22.30;99.90
2459;DHT22;1241;50.920;6.936;2023-05-10T15:04:42;22.20;99.90
2459;DHT22;1241;50.920;6.936;2023-05-10T15:07:08;22.30;99.90
2459;DHT22;1241;50.920;6.936;2023-05-10T15:09:34;22.40;99.90
2459;DHT22;1241;50.920;6.936;2023-05-10T15:11:59;22.60;99.90
2459;DHT22;1241;50.920;6.936;2023-05-10T15:14:26;22.60;99.90
2459;DHT22;1241;50.920;6.936;2023-05-10T15:16:52;22.90;99.90
2459;DHT22;1241;50.920;6.936;2023-05-10T15:19:17;23.10;99.90
2459;DHT22;1241;50.920;6.936;2023-05-10T15:21:43;23.10;99.90
2459;DHT22;1241;50.920;6.936;2023-05-10T15:24:09;22.90;99.90
2459;DHT22;1241;50.920;6.936;2023-05-10T15:26:35;22.90;99.90
2459;DHT22;1241;50.920;6.936;2023-05-10T15:29:01;23.00;99.90
2459;DHT22;1241;50.920;6.936;2023-05-10T15:31:27;22.90;99.90
2459;DHT22;1241;50.920;6.936;2023-05-10T15:33:57;22.70;99.90
2459;DHT22;1241;50.920;6.936;2023-05-10T15:36:24;22.60;99.90
2459;DHT22;1241;50.920;6.936;2023-05-10T15:38:49;22.40;99.90
2459;DHT22;1241;50.920;6.936;2023-05-10T15:41:15;22.20;99.90
2459;DHT22;1241;50.920;6.936;2023-05-10T15:43:41;22.10;99.90
2459;DHT22;1241;50.920;6.936;2023-05-10T15:46:07;21.90;99.90
2459;DHT22;1241;50.920;6.936;2023-05-10T15:48:32;21.80;99.90
2459;DHT22;1241;50.920;6.936;2023-05-10T15:50:58;21.80;99.90
2459;DHT22;1241;50.920;6.936;2023-05-10T15:53:24;22.00;99.90
2459;DHT22;1241;50.920;6.936;2023-05-10T15:55:50;22.20;99.90
2459;DHT22;1241;50.920;6.936;2023-05-10T15:58:16;22.30;99.90
2459;DHT22;1241;50.920;6.936;2023-05-10T16:00:41;22.40;99.90
2459;DHT22;1241;50.920;6.936;2023-05-10T16:03:07;22.40;99.90
2459;DHT22;1241;50.920;6.936;2023-05-10T16:05:33;22.20;99.90
2459;DHT22;1241;50.920;6.936;2023-05-10T16:08:00;22.20;99.90
2459;DHT22;1241;50.920;6.936;2023-05-10T16:10:26;22.00;99.90
2459;DHT22;1241;50.920;6.936;2023-05-10T16:12:53;21.80;99.90
2459;DHT22;1241;50.920;6.936;2023-05-10T16:15:20;21.80;99.90
2459;DHT22;1241;50.920;6.936;2023-05-10T16:17:48;21.70;99.90
2459;DHT22;1241;50.920;6.936;2023-05-10T16:20:13;21.50;99.90
2459;DHT22;1241;50.920;6.936;2023-05-10T16:22:39;21.30;99.90
2459;DHT22;1241;50.920;6.936;2023-05-10T16:25:05;21.20;99.90
2459;DHT22;1241;50.920;6.936;2023-05-10T16:27:31;21.30;99.90
2459;DHT22;1241;50.920;6.936;2023-05-10T16:29:58;21.40;99.90
2459;DHT22;1241;50.920;6.936;2023-05-10T16:32:24;21.30;99.90
2459;DHT22;1241;50.920;6.936;2023-05-10T16:34:49;21.10;99.90
2459;DHT22;1241;50.920;6.936;2023-05-10T16:37:17;20.90;99.90
2459;DHT22;1241;50.920;6.936;2023-05-10T16:39:43;20.80;99.90